Alligator, MS (38720)

1:34 AM CDT on May 01, 2017 (GMT -0500)
Clarksdale | | Change Station
Active Advisory: Flood Warning

Elev 164 ft 34.10 °N, 90.61 °W | Updated 5 seconds ago

Clear
Clear
59.6 °F
Feels Like 59.6 °F
N
12.0
Wind Variable Wind from SSW
Gusts 21.0 mph

Today
High -- | Low -- °F
--% Chance of Precip.
Yesterday
High -- | Low -- °F
Precip. -- in
Pressure 29.77 in
Visibility 10.0 miles
Clouds Clear
Dew Point 53 °F
Humidity 79%
Rainfall 0.00 in
Snow Depth Not available.
6:13 AM 7:47 PM
Waxing Crescent, 30% visible
METAR KCKM 010635Z AUTO 19013KT 10SM CLR 15/11 A2977 RMK A01
Pressure 29.77 in
Visibility 10.0 miles
Clouds Clear
Dew Point 53 °F
Humidity 79%
Rainfall 0.00 in
Snow Depth Not available.
6:13 AM 7:47 PM
Waxing Crescent, 30% visible
METAR KCKM 010635Z AUTO 19013KT 10SM CLR 15/11 A2977 RMK A01

Get Your Daily Forecast Email!

Thanks for signing up!

Be on the lookout for a verification email in your inbox.

You'll start receiving severe weather alerts in your inbox..

×

10-Day Weather Forecast

Almanac

Astronomy

May. 01, 2017 Rise Set
Actual Time
Civil Twilight
Nautical Twilight
Astronomical Twilight
Moon
Length of Visible Light
Length of Day
Tomorrow will be .
, % of the Moon is Illuminated

Today's Extremes

State Highs State Lows

Community

WunderPhotos

WunderBlog® & News

Nearby

Air Quality

  Air Quality AQ Index Pollutant
Not available.

Snow Depth

Station Depth Elevation

Earthquake Activity

City Distance Mag. Time & Date
Minimum magnitude displayed is 2.5.

Coastal Water Temperatures

Place Temperature

Stations

Nearby Weather Stations

Station Location Temp. Windchill Dew Point Humidity Wind Precip. Elev Updated Type
                   

Watches & Warnings

Flood Warning
Issued: 10:00 PM CDT Apr. 30, 2017 – National Weather Service


The Flood Warning continues for
the Mississippi River near Arkansas City
* from Monday may 08 to Wednesday may 17.
* At 9:00 PM Sunday the stage was 28.9 feet.
* Minor flooding is forecast.
* Flood stage is 37.0 feet.
* Forecast... the river will rise above flood stage Monday may 08 and
will continue to rise to near 39.0 feet Saturday may 13.
* Impact... at 37.0 feet... the low Silt plain in front of Arkansas City
inside the levee system begins to flood along with widespread
bottomland flooding at Huntington Point Mississippi.
* Impact... at 35.0 feet... the Road to Donaldson Point is cut off.


              Flood observed forecast 6 am crest
location stg stg day time Mon Tue Wed crest time date

Lower Mississippi River
Arkansas City 37 28.9 sun 09 PM 29.6 31.0 32.5 39.0 01 PM 05/13




Lat... Lon 3340 9128 3357 9128 3413 9108 3412 9066
      3358 9106 3340 9105